createdAt,value
2019-03-16T00:02:01.767Z,97629.59
2019-03-16T00:04:32.615Z,97619.92
2019-03-16T00:07:03.083Z,97607.68
2019-03-16T00:09:33.542Z,97600.67
2019-03-16T00:12:04.329Z,97594.23
2019-03-16T00:14:35.192Z,97591.04
2019-03-16T00:17:05.838Z,97593.06
2019-03-16T00:19:36.173Z,97593.82
2019-03-16T00:22:07.375Z,97592.16
2019-03-16T00:24:37.807Z,97583.03
2019-03-16T00:27:08.640Z,97588.23
2019-03-16T00:29:39.302Z,97597.55
2019-03-16T00:32:13.595Z,97596.55
2019-03-16T00:34:42.074Z,97596.45
2019-03-16T00:37:14.288Z,97603.45
2019-03-16T00:39:44.779Z,97600.37
2019-03-16T00:42:15.211Z,97594.55
2019-03-16T00:44:45.490Z,97589.55
2019-03-16T00:47:15.961Z,97588.85
2019-03-16T00:49:46.401Z,97584.62
2019-03-16T00:52:16.965Z,97581.42
2019-03-16T00:54:47.357Z,97584.59
2019-03-16T00:57:20.732Z,97571.49
2019-03-16T00:59:51.327Z,97571.48
2019-03-16T01:02:26.960Z,97572.61
2019-03-16T01:04:53.993Z,97574.02
2019-03-16T01:07:24.635Z,97578.66
2019-03-16T01:09:55.205Z,97574.94
2019-03-16T01:12:25.675Z,97578.52
2019-03-16T01:14:56.132Z,97580.97
2019-03-16T01:17:26.487Z,97584.30
2019-03-16T01:19:56.964Z,97579.84
2019-03-16T01:22:27.683Z,97574.03
2019-03-16T01:24:58.433Z,97568.64
2019-03-16T01:27:29.073Z,97570.62
2019-03-16T01:29:59.671Z,97568.82
2019-03-16T01:32:40.041Z,97576.13
2019-03-16T01:35:02.562Z,97576.08
2019-03-16T01:37:33.139Z,97581.69
2019-03-16T01:40:03.653Z,97577.43
2019-03-16T01:42:34.231Z,97577.37
2019-03-16T01:45:04.819Z,97584.73
2019-03-16T01:47:35.504Z,97587.84
2019-03-16T01:50:06.229Z,97592.89
2019-03-16T01:52:36.941Z,97600.89
2019-03-16T01:55:07.886Z,97598.47
2019-03-16T01:57:38.117Z,97596.88
2019-03-16T02:00:09.230Z,97593.22
2019-03-16T02:02:53.697Z,97586.78
2019-03-16T02:05:12.295Z,97594.71
2019-03-16T02:07:42.888Z,97596.06
2019-03-16T02:10:13.715Z,97598.11
2019-03-16T02:12:44.538Z,97608.98
2019-03-16T02:15:15.107Z,97617.22
2019-03-16T02:17:45.627Z,97618.86
2019-03-16T02:20:15.971Z,97604.92
2019-03-16T02:22:46.664Z,97600.47
2019-03-16T02:25:17.154Z,97601.29
2019-03-16T02:27:47.723Z,97600.42
2019-03-16T02:30:18.437Z,97606.08
2019-03-16T02:32:48.813Z,97602.50
2019-03-16T02:35:19.184Z,97599.35
2019-03-16T02:37:49.932Z,97589.41
2019-03-16T02:40:20.568Z,97587.13
2019-03-16T02:42:51.171Z,97586.92
2019-03-16T02:45:21.600Z,97582.12
2019-03-16T02:47:52.459Z,97585.62
2019-03-16T02:50:22.967Z,97580.34
2019-03-16T02:52:53.365Z,97578.44
2019-03-16T02:55:23.850Z,97578.00
2019-03-16T02:57:54.736Z,97572.55
2019-03-16T03:00:25.248Z,97581.98
2019-03-16T03:02:55.669Z,97573.43
2019-03-16T03:05:26.497Z,97580.61
2019-03-16T03:07:57.016Z,97573.20
2019-03-16T03:10:27.396Z,97570.77
2019-03-16T03:12:57.933Z,97577.13
2019-03-16T03:15:28.758Z,97577.40
2019-03-16T03:17:59.202Z,97579.86
2019-03-16T03:20:29.893Z,97583.34
2019-03-16T03:23:00.592Z,97582.48
2019-03-16T03:25:31.127Z,97575.61
2019-03-16T03:28:01.574Z,97573.77
2019-03-16T03:30:31.984Z,97577.40
2019-03-16T03:33:02.570Z,97571.95
2019-03-16T03:35:33.028Z,97575.50
2019-03-16T03:38:03.478Z,97566.45
2019-03-16T03:40:34.616Z,97571.58
2019-03-16T03:43:05.295Z,97577.67
2019-03-16T03:45:35.802Z,97576.81
2019-03-16T03:48:06.327Z,97574.62
2019-03-16T03:50:36.923Z,97571.41
2019-03-16T03:53:07.554Z,97570.48
2019-03-16T03:55:38.131Z,97569.13
2019-03-16T03:58:08.552Z,97570.70
2019-03-16T04:00:39.050Z,97583.17
2019-03-16T04:03:09.693Z,97586.11
2019-03-16T04:05:40.306Z,97585.86
2019-03-16T04:08:11.062Z,97582.56
2019-03-16T04:10:41.502Z,97581.59
2019-03-16T04:13:11.836Z,97585.87
2019-03-16T04:15:42.578Z,97589.91
2019-03-16T04:18:13.230Z,97591.81
2019-03-16T04:20:43.740Z,97591.33
2019-03-16T04:23:14.269Z,97584.61
2019-03-16T04:25:44.702Z,97583.58
2019-03-16T04:28:15.350Z,97578.84
2019-03-16T04:30:45.751Z,97580.58
2019-03-16T04:33:16.306Z,97571.08
2019-03-16T04:35:46.876Z,97562.71
2019-03-16T04:38:17.318Z,97564.27
2019-03-16T04:40:47.987Z,97570.52
2019-03-16T04:43:18.712Z,97562.67
2019-03-16T04:45:49.361Z,97548.67
2019-03-16T04:48:20.201Z,97542.89
2019-03-16T04:50:50.790Z,97533.59
2019-03-16T04:53:21.316Z,97526.02
2019-03-16T04:55:52.316Z,97520.95
2019-03-16T04:58:22.828Z,97516.01
2019-03-16T05:00:53.228Z,97507.29
2019-03-16T05:03:23.817Z,97506.95
2019-03-16T05:05:54.472Z,97513.10
2019-03-16T05:08:25.284Z,97509.13
2019-03-16T05:10:56.057Z,97500.94
2019-03-16T05:13:26.658Z,97501.20
2019-03-16T05:15:57.349Z,97514.03
2019-03-16T05:18:28.170Z,97516.23
2019-03-16T05:20:58.882Z,97527.19
2019-03-16T05:23:29.304Z,97521.08
2019-03-16T05:25:59.773Z,97538.09
2019-03-16T05:28:31.750Z,97537.13
2019-03-16T05:31:02.365Z,97545.19
2019-03-16T05:33:33.079Z,97537.27
2019-03-16T05:36:03.786Z,97534.71
2019-03-16T05:38:34.609Z,97540.89
2019-03-16T05:41:05.362Z,97543.26
2019-03-16T05:43:36.055Z,97540.23
2019-03-16T05:46:06.754Z,97550.66
2019-03-16T05:48:37.247Z,97542.59
2019-03-16T05:51:08.031Z,97536.05
2019-03-16T05:53:39.080Z,97527.74
2019-03-16T05:56:09.649Z,97527.38
2019-03-16T05:58:40.195Z,97527.50
2019-03-16T06:01:10.703Z,97537.47
2019-03-16T06:03:41.558Z,97543.41
2019-03-16T06:06:12.371Z,97545.70
2019-03-16T06:08:43.116Z,97538.91
2019-03-16T06:11:13.780Z,97547.02
2019-03-16T06:13:44.556Z,97549.80
2019-03-16T06:16:15.348Z,97542.80
2019-03-16T06:18:45.722Z,97548.02
2019-03-16T06:21:16.219Z,97554.58
2019-03-16T06:23:46.927Z,97553.05
2019-03-16T06:26:19.263Z,97571.16
2019-03-16T06:28:49.891Z,97573.83
2019-03-16T06:31:20.651Z,97590.63
2019-03-16T06:33:51.207Z,97619.33
2019-03-16T06:36:21.729Z,97620.55
2019-03-16T06:38:52.579Z,97645.16
2019-03-16T06:41:22.934Z,97653.42
2019-03-16T06:43:53.572Z,97657.46
2019-03-16T06:46:24.130Z,97662.02
2019-03-16T06:48:54.921Z,97671.61
2019-03-16T06:51:25.390Z,97661.02
2019-03-16T06:53:55.888Z,97663.91
2019-03-16T06:56:27.777Z,97652.68
2019-03-16T06:58:59.586Z,97666.41
2019-03-16T07:01:30.142Z,97662.45
2019-03-16T07:04:00.513Z,97647.01
2019-03-16T07:06:31.044Z,97645.64
2019-03-16T07:09:01.514Z,97640.88
2019-03-16T07:11:32.033Z,97632.97
2019-03-16T07:14:02.691Z,97624.14
2019-03-16T07:16:33.079Z,97615.98
2019-03-16T07:19:03.658Z,97611.86
2019-03-16T07:21:34.195Z,97611.78
2019-03-16T07:24:05.840Z,97603.25
2019-03-16T07:26:36.568Z,97599.16
2019-03-16T07:29:07.179Z,97594.33
2019-03-16T07:31:37.842Z,97584.25
2019-03-16T07:34:08.290Z,97582.88
2019-03-16T07:36:39.194Z,97569.36
2019-03-16T07:39:10.029Z,97571.54
2019-03-16T07:41:40.730Z,97562.01
2019-03-16T07:44:11.350Z,97555.84
2019-03-16T07:46:41.826Z,97553.52
2019-03-16T07:49:12.299Z,97555.23
2019-03-16T07:51:42.830Z,97566.11
2019-03-16T07:54:13.280Z,97555.34
2019-03-16T07:56:43.858Z,97559.45
2019-03-16T07:59:14.484Z,97558.67
2019-03-16T08:01:45.205Z,97575.56
2019-03-16T08:04:15.966Z,97573.75
2019-03-16T08:06:46.558Z,97575.99
2019-03-16T08:09:17.099Z,97569.20
2019-03-16T08:11:47.536Z,97568.94
2019-03-16T08:14:18.219Z,97578.66
2019-03-16T08:16:48.736Z,97587.27
2019-03-16T08:19:19.420Z,97588.59
2019-03-16T08:21:49.917Z,97591.81
2019-03-16T08:24:20.374Z,97584.08
2019-03-16T08:26:50.761Z,97583.33
2019-03-16T08:29:21.414Z,97575.05
2019-03-16T08:31:52.005Z,97578.50
2019-03-16T08:34:22.572Z,97573.05
2019-03-16T08:36:52.958Z,97572.37
2019-03-16T08:39:23.495Z,97576.63
2019-03-16T08:41:53.915Z,97583.37
2019-03-16T08:44:24.567Z,97572.71
2019-03-16T08:46:54.972Z,97573.70
2019-03-16T08:49:25.782Z,97566.27
2019-03-16T08:51:56.216Z,97553.19
2019-03-16T08:54:26.720Z,97545.88
2019-03-16T08:56:57.410Z,97546.09
2019-03-16T08:59:30.585Z,97541.53
2019-03-16T09:02:01.199Z,97543.67
2019-03-16T09:04:31.626Z,97552.39
2019-03-16T09:07:02.114Z,97560.44
2019-03-16T09:09:32.670Z,97567.31
2019-03-16T09:12:03.253Z,97574.95
2019-03-16T09:14:33.810Z,97563.83
2019-03-16T09:17:04.370Z,97558.25
2019-03-16T09:19:35.039Z,97557.05
2019-03-16T09:22:05.743Z,97554.02
2019-03-16T09:24:36.428Z,97553.56
2019-03-16T09:27:06.590Z,97552.28
2019-03-16T09:29:37.212Z,97558.24
2019-03-16T09:32:07.631Z,97568.34
2019-03-16T09:34:38.018Z,97566.52
2019-03-16T09:37:08.444Z,97560.84
2019-03-16T09:39:38.774Z,97553.73
2019-03-16T09:42:09.356Z,97538.06
2019-03-16T09:44:39.945Z,97531.58
2019-03-16T09:47:10.411Z,97543.66
2019-03-16T09:49:40.667Z,97542.02
2019-03-16T09:52:11.302Z,97543.00
2019-03-16T09:54:41.834Z,97543.00
2019-03-16T09:57:12.271Z,97552.77
2019-03-16T09:59:42.746Z,97540.75
2019-03-16T10:02:13.176Z,97549.16
2019-03-16T10:04:43.973Z,97533.30
2019-03-16T10:07:14.526Z,97523.69
2019-03-16T10:09:45.101Z,97516.75
2019-03-16T10:12:15.831Z,97512.76
2019-03-16T10:14:46.277Z,97526.97
2019-03-16T10:17:16.809Z,97536.44
2019-03-16T10:19:47.198Z,97533.91
2019-03-16T10:22:17.954Z,97527.79
2019-03-16T10:24:48.365Z,97524.77
2019-03-16T10:27:19.168Z,97528.52
2019-03-16T10:29:49.801Z,97524.05
2019-03-16T10:32:20.364Z,97516.87
2019-03-16T10:34:50.724Z,97505.16
2019-03-16T10:37:21.303Z,97507.88
2019-03-16T10:39:51.948Z,97486.59
2019-03-16T10:42:22.401Z,97481.87
2019-03-16T10:44:52.894Z,97468.69
2019-03-16T10:47:23.602Z,97476.34
2019-03-16T10:49:54.064Z,97477.41
2019-03-16T10:52:24.484Z,97466.98
2019-03-16T10:54:55.108Z,97450.15
2019-03-16T10:57:28.152Z,97453.37
2019-03-16T10:59:58.756Z,97438.94
2019-03-16T11:02:29.263Z,97443.45
2019-03-16T11:04:59.779Z,97432.70
2019-03-16T11:07:30.199Z,97426.38
2019-03-16T11:10:00.626Z,97411.70
2019-03-16T11:12:31.189Z,97411.11
2019-03-16T11:15:01.869Z,97399.50
2019-03-16T11:17:32.350Z,97382.22
2019-03-16T11:20:02.769Z,97379.14
2019-03-16T11:22:33.315Z,97384.55
2019-03-16T11:25:03.910Z,97392.09
2019-03-16T11:27:34.400Z,97389.61
2019-03-16T11:30:05.304Z,97383.69
2019-03-16T11:32:35.714Z,97381.80
2019-03-16T11:35:06.995Z,97363.61
2019-03-16T11:37:37.744Z,97350.75
2019-03-16T11:40:10.443Z,97371.16
2019-03-16T11:42:41.090Z,97360.22
2019-03-16T11:45:11.796Z,97374.80
2019-03-16T11:47:42.387Z,97377.77
2019-03-16T11:50:12.866Z,97368.11
2019-03-16T11:52:43.266Z,97368.45
2019-03-16T11:55:13.679Z,97369.37
2019-03-16T11:57:44.136Z,97366.94
2019-03-16T12:00:14.911Z,97355.97
2019-03-16T12:02:45.294Z,97356.63
2019-03-16T12:05:16.108Z,97336.29
2019-03-16T12:07:46.552Z,97354.94
2019-03-16T12:10:17.055Z,97348.87
2019-03-16T12:12:47.438Z,97339.34
2019-03-16T12:15:17.865Z,97343.59
2019-03-16T12:17:48.594Z,97339.95
2019-03-16T12:20:19.245Z,97341.91
2019-03-16T12:22:49.779Z,97355.52
2019-03-16T12:25:20.180Z,97358.04
2019-03-16T12:27:50.624Z,97348.84
2019-03-16T12:30:21.157Z,97348.27
2019-03-16T12:32:51.511Z,97343.08
2019-03-16T12:35:22.056Z,97350.37
2019-03-16T12:37:52.509Z,97359.75
2019-03-16T12:40:23.179Z,97353.77
2019-03-16T12:42:53.848Z,97355.46
2019-03-16T12:45:24.448Z,97353.41
2019-03-16T12:47:54.923Z,97350.09
2019-03-16T12:50:25.580Z,97363.17
2019-03-16T12:52:56.144Z,97364.89
2019-03-16T12:55:26.741Z,97372.64
2019-03-16T12:57:57.171Z,97385.48
2019-03-16T13:00:27.699Z,97389.34
2019-03-16T13:02:58.215Z,97386.06
2019-03-16T13:05:28.763Z,97380.87
2019-03-16T13:07:59.091Z,97377.42
2019-03-16T13:10:29.438Z,97369.87
2019-03-16T13:12:59.947Z,97381.49
2019-03-16T13:15:30.790Z,97375.97
2019-03-16T13:18:01.121Z,97382.91
2019-03-16T13:20:31.779Z,97384.25
2019-03-16T13:23:02.336Z,97384.81
2019-03-16T13:25:32.827Z,97390.74
2019-03-16T13:28:03.402Z,97398.78
2019-03-16T13:30:33.830Z,97400.16
2019-03-16T13:33:04.331Z,97400.45
2019-03-16T13:35:34.802Z,97409.23
2019-03-16T13:38:05.274Z,97410.41
2019-03-16T13:40:35.599Z,97401.66
2019-03-16T13:43:06.133Z,97405.94
2019-03-16T13:45:36.706Z,97408.75
2019-03-16T13:48:07.370Z,97405.99
2019-03-16T13:50:37.803Z,97409.27
2019-03-16T13:53:08.435Z,97409.61
2019-03-16T13:55:39.004Z,97416.14
2019-03-16T13:58:09.798Z,97412.34
2019-03-16T14:00:40.339Z,97411.59
2019-03-16T14:03:10.997Z,97412.08
2019-03-16T14:05:41.367Z,97410.39
2019-03-16T14:08:11.926Z,97407.59
2019-03-16T14:10:42.732Z,97412.45
2019-03-16T14:13:13.388Z,97423.73
2019-03-16T14:15:43.691Z,97409.69
2019-03-16T14:18:14.116Z,97415.75
2019-03-16T14:20:44.590Z,97423.15
2019-03-16T14:23:15.114Z,97417.34
2019-03-16T14:25:45.873Z,97416.48
2019-03-16T14:28:16.362Z,97412.00
2019-03-16T14:30:46.975Z,97414.29
2019-03-16T14:33:17.421Z,97416.39
2019-03-16T14:35:48.099Z,97426.84
2019-03-16T14:38:18.481Z,97409.61
2019-03-16T14:40:48.821Z,97420.14
2019-03-16T14:43:19.436Z,97417.52
2019-03-16T14:45:50.064Z,97411.07
2019-03-16T14:48:20.809Z,97429.75
2019-03-16T14:50:51.132Z,97430.94
2019-03-16T14:53:21.691Z,97424.14
2019-03-16T14:55:52.134Z,97425.50
2019-03-16T14:58:22.514Z,97427.64
2019-03-16T15:00:53.130Z,97433.06
2019-03-16T15:03:23.477Z,97430.48
2019-03-16T15:05:53.987Z,97434.84
2019-03-16T15:08:24.410Z,97431.49
2019-03-16T15:10:54.804Z,97426.05
2019-03-16T15:13:26.909Z,97437.26
2019-03-16T15:15:57.624Z,97444.12
2019-03-16T15:18:28.073Z,97453.04
2019-03-16T15:20:58.721Z,97450.73
2019-03-16T15:23:29.035Z,97450.43
2019-03-16T15:25:59.368Z,97456.96
2019-03-16T15:28:29.771Z,97459.11
2019-03-16T15:31:00.282Z,97464.12
2019-03-16T15:33:30.818Z,97459.03
2019-03-16T15:36:01.272Z,97459.85
2019-03-16T15:38:31.940Z,97460.20
2019-03-16T15:41:02.568Z,97463.52
2019-03-16T15:43:33.157Z,97464.64
2019-03-16T15:46:03.508Z,97466.74
2019-03-16T15:48:34.051Z,97461.25
2019-03-16T15:51:04.430Z,97458.91
2019-03-16T15:53:34.910Z,97464.89
2019-03-16T15:56:05.585Z,97476.45
2019-03-16T15:58:36.095Z,97479.91
2019-03-16T16:01:06.419Z,97472.97
2019-03-16T16:03:37.038Z,97472.45
2019-03-16T16:06:07.696Z,97480.63
2019-03-16T16:08:38.235Z,97483.97
2019-03-16T16:11:08.817Z,97488.78
2019-03-16T16:13:39.396Z,97486.70
2019-03-16T16:16:09.843Z,97483.58
2019-03-16T16:18:40.394Z,97483.23
2019-03-16T16:21:12.049Z,97484.38
2019-03-16T16:23:42.525Z,97484.66
2019-03-16T16:26:12.997Z,97481.62
2019-03-16T16:28:43.489Z,97486.97
2019-03-16T16:31:16.586Z,97488.80
2019-03-16T16:33:46.044Z,97491.97
2019-03-16T16:36:16.509Z,97480.64
2019-03-16T16:38:47.034Z,97492.81
2019-03-16T16:41:17.526Z,97496.61
2019-03-16T16:43:47.923Z,97497.83
2019-03-16T16:46:18.606Z,97503.27
2019-03-16T16:48:48.954Z,97500.52
2019-03-16T16:51:19.520Z,97500.09
2019-03-16T16:53:49.946Z,97504.06
2019-03-16T16:56:20.307Z,97509.51
2019-03-16T16:58:51.049Z,97513.59
2019-03-16T17:01:29.277Z,97509.85
2019-03-16T17:03:54.044Z,97503.46
2019-03-16T17:06:25.775Z,97506.49
2019-03-16T17:08:56.526Z,97519.42
2019-03-16T17:11:27.273Z,97517.53
2019-03-16T17:13:57.730Z,97508.80
2019-03-16T17:16:28.537Z,97522.25
2019-03-16T17:18:59.174Z,97528.12
2019-03-16T17:21:29.935Z,97520.06
2019-03-16T17:24:00.677Z,97524.44
2019-03-16T17:26:31.361Z,97532.28
2019-03-16T17:29:02.475Z,97532.45
2019-03-16T17:31:42.136Z,97535.78
2019-03-16T17:34:05.291Z,97538.53
2019-03-16T17:36:37.849Z,97544.70
2019-03-16T17:39:09.555Z,97548.98
2019-03-16T17:41:39.829Z,97550.88
2019-03-16T17:44:10.546Z,97554.55
2019-03-16T17:46:41.501Z,97552.97
2019-03-16T17:49:13.177Z,97562.91
2019-03-16T17:51:43.783Z,97564.70
2019-03-16T17:54:14.365Z,97571.23
2019-03-16T17:56:44.790Z,97567.75
2019-03-16T17:59:15.499Z,97574.05
2019-03-16T18:01:54.582Z,97570.94
2019-03-16T18:04:18.568Z,97572.36
2019-03-16T18:06:49.100Z,97576.80
2019-03-16T18:09:19.558Z,97586.43
2019-03-16T18:11:50.011Z,97588.05
2019-03-16T18:14:21.621Z,97594.38
2019-03-16T18:16:54.258Z,97583.22
2019-03-16T18:19:24.980Z,97600.73
2019-03-16T18:21:55.707Z,97597.22
2019-03-16T18:24:26.545Z,97594.01
2019-03-16T18:26:58.495Z,97605.26
2019-03-16T18:29:29.295Z,97593.91
2019-03-16T18:32:07.763Z,97596.38
2019-03-16T18:34:32.285Z,97593.64
2019-03-16T18:37:05.355Z,97604.78
2019-03-16T18:39:36.026Z,97606.22
2019-03-16T18:42:06.819Z,97608.47
2019-03-16T18:44:37.464Z,97616.70
2019-03-16T18:47:07.940Z,97630.50
2019-03-16T18:49:38.487Z,97626.36
2019-03-16T18:52:08.982Z,97634.19
2019-03-16T18:54:39.601Z,97631.64
2019-03-16T18:57:10.467Z,97634.54
2019-03-16T18:59:40.979Z,97642.77
2019-03-16T19:02:20.660Z,97643.33
2019-03-16T19:04:44.266Z,97652.69
2019-03-16T19:07:20.453Z,97657.67
2019-03-16T19:09:59.063Z,97657.52
2019-03-16T19:12:31.108Z,97655.79
2019-03-16T19:15:01.939Z,97662.50
2019-03-16T19:17:32.622Z,97662.91
2019-03-16T19:20:08.458Z,97671.67
2019-03-16T19:22:39.393Z,97668.47
2019-03-16T19:25:12.431Z,97674.97
2019-03-16T19:27:43.385Z,97682.08
2019-03-16T19:30:14.948Z,97678.11
2019-03-16T19:32:45.830Z,97673.30
2019-03-16T19:35:16.586Z,97677.55
2019-03-16T19:37:47.173Z,97677.85
2019-03-16T19:40:17.786Z,97680.03
2019-03-16T19:42:48.472Z,97681.54
2019-03-16T19:45:19.493Z,97680.03
2019-03-16T19:47:50.078Z,97687.12
2019-03-16T19:50:20.902Z,97681.73
2019-03-16T19:52:51.381Z,97681.15
2019-03-16T19:55:21.782Z,97684.16
2019-03-16T19:57:52.154Z,97688.14
2019-03-16T20:00:23.032Z,97690.87
2019-03-16T20:02:53.889Z,97689.09
2019-03-16T20:05:24.820Z,97697.49
2019-03-16T20:07:55.364Z,97696.05
2019-03-16T20:10:25.778Z,97705.38
2019-03-16T20:12:57.734Z,97706.30
2019-03-16T20:15:28.385Z,97712.36
2019-03-16T20:17:59.411Z,97714.27
2019-03-16T20:20:30.261Z,97707.66
2019-03-16T20:23:01.171Z,97720.98
2019-03-16T20:25:31.649Z,97720.02
2019-03-16T20:28:02.243Z,97721.07
2019-03-16T20:30:33.391Z,97728.23
2019-03-16T20:33:04.536Z,97728.70
2019-03-16T20:35:35.469Z,97741.02
2019-03-16T20:38:06.133Z,97740.48
2019-03-16T20:40:37.299Z,97744.39
2019-03-16T20:43:07.851Z,97743.69
2019-03-16T20:45:38.590Z,97749.17
2019-03-16T20:48:09.360Z,97756.38
2019-03-16T20:50:39.919Z,97753.50
2019-03-16T20:53:10.526Z,97763.73
2019-03-16T20:55:41.030Z,97772.81
2019-03-16T20:58:11.587Z,97776.69
2019-03-16T21:00:42.069Z,97778.80
2019-03-16T21:03:16.309Z,97789.61
2019-03-16T21:05:44.818Z,97786.59
2019-03-16T21:08:15.127Z,97794.67
2019-03-16T21:10:45.693Z,97798.41
2019-03-16T21:13:16.605Z,97806.85
2019-03-16T21:15:47.074Z,97811.87
2019-03-16T21:18:17.550Z,97808.27
2019-03-16T21:20:48.080Z,97820.13
2019-03-16T21:23:18.644Z,97809.09
2019-03-16T21:25:51.993Z,97814.80
2019-03-16T21:28:22.386Z,97813.09
2019-03-16T21:30:53.060Z,97813.05
2019-03-16T21:33:29.350Z,97817.98
2019-03-16T21:35:55.612Z,97825.69
2019-03-16T21:38:26.240Z,97819.84
2019-03-16T21:40:56.922Z,97820.25
2019-03-16T21:43:27.669Z,97815.25
2019-03-16T21:45:58.034Z,97815.34
2019-03-16T21:48:28.409Z,97807.58
2019-03-16T21:50:59.081Z,97808.17
2019-03-16T21:53:29.503Z,97814.42
2019-03-16T21:56:00.252Z,97812.95
2019-03-16T21:58:31.103Z,97821.37
2019-03-16T22:01:01.926Z,97821.64
2019-03-16T22:03:42.083Z,97821.55
2019-03-16T22:06:09.831Z,97820.05
2019-03-16T22:08:40.638Z,97809.08
2019-03-16T22:11:11.332Z,97813.55
2019-03-16T22:13:41.676Z,97814.97
2019-03-16T22:16:12.309Z,97812.49
2019-03-16T22:18:43.177Z,97808.29
2019-03-16T22:21:13.724Z,97811.80
2019-03-16T22:23:44.252Z,97803.09
2019-03-16T22:26:14.865Z,97805.81
2019-03-16T22:28:45.413Z,97806.03
2019-03-16T22:31:15.965Z,97805.13
2019-03-16T22:33:54.281Z,97807.86
2019-03-16T22:36:18.751Z,97813.14
2019-03-16T22:38:49.390Z,97816.16
2019-03-16T22:41:20.122Z,97813.06
2019-03-16T22:43:50.699Z,97817.16
2019-03-16T22:46:21.351Z,97809.36
2019-03-16T22:48:51.965Z,97806.97
2019-03-16T22:51:22.634Z,97803.79
2019-03-16T22:53:55.446Z,97812.63
2019-03-16T22:56:25.988Z,97806.64
2019-03-16T22:58:56.565Z,97804.62
2019-03-16T23:01:27.123Z,97806.02
2019-03-16T23:04:06.216Z,97806.89
2019-03-16T23:06:30.086Z,97802.47
2019-03-16T23:09:00.723Z,97796.00
2019-03-16T23:11:31.303Z,97797.31
2019-03-16T23:14:02.005Z,97796.11
2019-03-16T23:16:32.541Z,97790.63
2019-03-16T23:19:03.165Z,97793.14
2019-03-16T23:21:33.709Z,97800.45
2019-03-16T23:24:04.197Z,97792.28
2019-03-16T23:26:38.779Z,97791.13
2019-03-16T23:29:08.109Z,97799.17
2019-03-16T23:31:38.876Z,97795.16
2019-03-16T23:34:18.704Z,97803.30
2019-03-16T23:36:41.863Z,97807.50
2019-03-16T23:39:12.391Z,97806.25
2019-03-16T23:41:42.810Z,97808.56
2019-03-16T23:44:13.545Z,97812.36
2019-03-16T23:46:44.199Z,97803.69
2019-03-16T23:49:14.935Z,97814.28
2019-03-16T23:51:45.346Z,97817.07
2019-03-16T23:54:16.031Z,97800.77
2019-03-16T23:56:46.786Z,97807.33
2019-03-16T23:59:17.588Z,97806.77
